Terminal Aerodrome Forecast
Issued by NWS Knoxville/Tri Cities, TN

Home | Current Version | Previous Version | Text Only | Print | Product List | Glossary On
Versions: 1 2 3 4 5 6 7 8 9 10 11 12 13 14 15 16 17 18 19 20 21 22 23
000
FTUS44 KMRX 181120
TAFTRI
TAF
KTRI 181120Z 1812/1912 VRB03KT P6SM VCSH BKN020 OVC040
     FM181800 26008KT P6SM BKN050
     FM182000 27010KT P6SM SCT060 BKN250
     FM190100 VRB03KT P6SM BKN100
     FM190900 VRB02KT 2SM BR BKN020=

USA.gov is the U.S. government's official web portal to all federal, state and local government web resources and services.